Report METAR

 

LIBV - Gioia Del Colle, Italy
Distanza dalla stazione: SSE 15km
Dati ricevuti: 26/05/2018 14:55
Sereno
Sereno
 Vento da N
Vento: N 20 km/h
Temperatura: 27°C
Indice di Calore: 27°C
P.to Rugiada: 13°C
Umidità: 42%
Barometro: 1018 hPa
Riassunto: Sereno
Visibilità: superiore a 10 km
2018/05/26 12:55 LIBV 261255Z 01011KT 320V040 CAVOK 27/13 Q1018 RMK SKC VIS MIN 9999 WIND THR32 02010KT WIND THR14 01010KT BLU
LIBD - Bari/Palese Macc, Italy
Distanza dalla stazione: NNO 26km
Dati ricevuti: 26/05/2018 15:20
Sereno
Sereno
 Vento da N
Vento: N 19 km/h
Temperatura: 25°C
P.to Rugiada: 17°C
Umidità: 61%
Barometro: 1018 hPa
Riassunto: Sereno
Visibilità: superiore a 10 km
2018/05/26 13:20 LIBD 261320Z 01010KT CAVOK 25/17 Q1018
LIBH - Marina Di Ginosa, Italy
Distanza dalla stazione: S 53km
Dati ricevuti: 26/05/2018 14:55
Parz. nuvoloso
Parz. nuvoloso
 Vento da SE
Vento: SE 7 km/h
Temperatura: 32°C
P.to Rugiada: 15°C
Umidità: 36%
Barometro: 1015 hPa
Nuvole: Parz. nuvoloso
Visibilità: 10 km
Dettagli nuvole: Parz. nuvoloso 610 m
2018/05/26 12:55 LIBH 261255Z 13004KT 9999 SCT020 32/15 Q1015 RMK SCT QUK 1 QUL 1 W VIS MAR 25 KM VIS MIN 9999
 
LIBG - Grottaglie(Civ/A, Italy
Distanza dalla stazione: SE 61km
Dati ricevuti: 26/05/2018 14:50
Sereno
Sereno
 Vento da N
Vento: N 22 km/h
Temperatura: 30°C
Indice di Calore: 29°C
P.to Rugiada: 15°C
Umidità: 40%
Barometro: 1016 hPa
Riassunto: Sereno
Visibilità: superiore a 10 km
2018/05/26 12:50 LIBG 261250Z 01012KT 350V060 CAVOK 30/15 Q1016
LIBR - Brindisi/Casale, Italy
Distanza dalla stazione: ESE 96km
Dati ricevuti: 26/05/2018 15:20
Sereno
Sereno
 Vento da NO
Vento: NO 22 km/h
Temperatura: 24°C
P.to Rugiada: 20°C
Umidità: 78%
Barometro: 1017 hPa
Riassunto: Sereno
Visibilità: superiore a 10 km
2018/05/26 13:20 LIBR 261320Z 32012KT CAVOK 24/20 Q1017
LIBA - Amendola (it-Afb, Italy
Distanza dalla stazione: NO 118km
Dati ricevuti: 26/05/2018 14:55
Poche nubi
Poche nubi
 Vento da Variabile
Vento: Variabile 7 km/h
Temperatura: 29°C
Indice di Calore: 28°C
P.to Rugiada: 14°C
Umidità: 40%
Barometro: 1017 hPa
Nuvole: Poche nubi
Visibilità: 10 km
Dettagli nuvole: Poche nubi 1524 m
2018/05/26 12:55 LIBA 261255Z VRB04KT 9999 FEW050 29/14 Q1017 RMK FEW VIS MIN 9999 WIND THR11 VRB04KT WIND THR29 /////KT BLU
 
LIBF - Foggia/Gino Lisa, Italy
Distanza dalla stazione: ONO 126km
Dati ricevuti: 26/05/2018 14:50
Sereno
Sereno
 Vento da NO
Vento: NO 19 km/h
Temperatura: 30°C
P.to Rugiada: 14°C
Umidità: 38%
Barometro: 1017 hPa
Riassunto: Sereno
Visibilità: superiore a 10 km
2018/05/26 12:50 LIBF 261250Z 32010KT 290V350 CAVOK 30/14 Q1017
LIBN - Lecce (it-Afb), Italy
Distanza dalla stazione: SE 132km
Dati ricevuti: 26/05/2018 14:55
Poche nubi
Poche nubi
 Vento da N
Vento: N 19 km/h
Temperatura: 27°C
Indice di Calore: 28°C
P.to Rugiada: 18°C
Umidità: 58%
Barometro: 1017 hPa
Nuvole: Poche nubi
Visibilità: 10 km
Dettagli nuvole: Poche nubi 914 m
2018/05/26 12:55 LIBN 261255Z 35010KT 9999 FEW030 27/18 Q1017 RMK FEW VIS MIN 9999 WIND THR14 02010KT WIND THR32 01010KT BLU